Terminal Aerodrome Forecast
Issued by NWS Mobile, AL

Home | Current Version | Previous Version | Text Only | Print | Product List | Glossary On
Versions: 1 2 3 4 5 6 7 8 9 10 11 12 13 14 15
000
FTUS44 KMOB 011120
TAFPNS
TAF
KPNS 011120Z 0112/0212 15005KT P6SM SCT010 BKN015
     FM011400 17013KT P6SM OVC020
      TEMPO 0119/0123 4SM TSRA BKN015CB
     FM020000 16008KT P6SM BKN100
     FM020600 14003KT 4SM BR BKN010=

USA.gov is the U.S. government's official web portal to all federal, state and local government web resources and services.